Time;durP1;ratioP1;P1;durP2;ratioP2;P2;SDS_P1;SDS_P2;PMS_P1;PMS_P2;Temp;Humidity;BMP_temperature;BMP_pressure;BME280_temperature;BME280_humidity;BME280_pressure;Samples;Min_cycle;Max_cycle;Signal;HPM_P1;HPM_P2
2023/04/30 00:02:24;;;;;;;7.70;4.03;;;12.20;66.90;;;;;;5065155;28;20020;-63
2023/04/30 00:04:51;;;;;;;7.70;4.75;;;12.20;67.00;;;;;;5066262;28;20040;-63
2023/04/30 00:07:16;;;;;;;8.07;4.43;;;12.20;67.00;;;;;;5059210;28;20029;-63
2023/04/30 00:09:43;;;;;;;8.73;5.07;;;12.20;67.20;;;;;;5073392;28;20369;-63
2023/04/30 00:12:08;;;;;;;8.98;4.63;;;12.10;67.20;;;;;;5070595;28;20112;-63
2023/04/30 00:14:35;;;;;;;8.38;4.30;;;12.10;67.30;;;;;;5066931;28;20422;-63
2023/04/30 00:17:01;;;;;;;7.70;4.43;;;12.10;67.40;;;;;;5065798;28;20066;-63
2023/04/30 00:19:26;;;;;;;8.18;4.18;;;12.10;67.50;;;;;;5058853;28;20033;-63
2023/04/30 00:21:52;;;;;;;9.02;4.47;;;12.00;67.50;;;;;;5065185;28;20024;-63
2023/04/30 00:24:18;;;;;;;8.48;4.35;;;12.00;67.70;;;;;;5072718;28;20085;-63
2023/04/30 00:26:44;;;;;;;9.32;4.75;;;12.00;67.70;;;;;;5068061;28;20031;-63
2023/04/30 00:29:10;;;;;;;8.05;4.30;;;12.00;67.70;;;;;;5058695;28;20347;-63
2023/04/30 00:31:35;;;;;;;8.93;4.50;;;11.90;67.80;;;;;;5072661;28;20393;-63
2023/04/30 00:34:01;;;;;;;8.27;4.50;;;11.90;67.90;;;;;;5071280;28;20025;-63
2023/04/30 00:36:27;;;;;;;9.88;4.35;;;11.90;68.00;;;;;;5068515;28;20457;-62
2023/04/30 00:38:53;;;;;;;8.35;4.72;;;11.80;68.00;;;;;;5062155;28;20026;-63
2023/04/30 00:41:21;;;;;;;9.73;4.38;;;11.80;68.00;;;;;;5071281;28;20020;-63
2023/04/30 00:43:47;;;;;;;8.07;4.78;;;11.80;68.00;;;;;;5069948;28;20024;-63
2023/04/30 00:46:13;;;;;;;7.70;4.43;;;11.80;68.10;;;;;;5061605;28;20461;-63
2023/04/30 00:48:38;;;;;;;10.10;4.43;;;11.80;68.20;;;;;;5068368;28;20055;-63
2023/04/30 00:51:05;;;;;;;7.30;4.30;;;11.70;68.20;;;;;;5075623;28;20037;-63
2023/04/30 00:53:32;;;;;;;9.15;4.57;;;11.70;68.20;;;;;;5075261;28;20024;-63
2023/04/30 00:55:58;;;;;;;9.63;4.55;;;11.70;68.30;;;;;;5071391;28;20048;-63
2023/04/30 00:58:25;;;;;;;8.55;4.63;;;11.70;68.40;;;;;;5068733;28;20036;-63
2023/04/30 01:00:51;;;;;;;10.07;5.07;;;11.70;68.40;;;;;;5061247;28;20025;-62
2023/04/30 01:03:16;;;;;;;9.40;4.50;;;11.70;68.50;;;;;;5065048;28;20033;-62
2023/04/30 01:05:42;;;;;;;9.38;4.63;;;11.70;68.50;;;;;;5072446;28;20103;-63
2023/04/30 01:08:10;;;;;;;9.38;5.40;;;11.70;68.50;;;;;;5072692;28;20407;-63
2023/04/30 01:10:44;;;;;;;8.07;4.63;;;11.60;68.40;;;;;;5065694;28;20066;-63
2023/04/30 01:13:37;;;;;;;9.25;5.05;;;11.70;68.50;;;;;;5075325;28;20033;-63
2023/04/30 01:16:09;;;;;;;9.90;4.68;;;11.70;68.40;;;;;;5069202;28;20024;-63
2023/04/30 01:18:41;;;;;;;8.65;4.90;;;11.60;68.50;;;;;;5073880;28;20060;-63
2023/04/30 01:21:08;;;;;;;9.52;5.05;;;11.60;68.50;;;;;;5069292;28;20342;-62
2023/04/30 01:24:10;;;;;;;9.95;4.80;;;11.60;68.50;;;;;;5074890;28;20024;-63
2023/04/30 01:26:36;;;;;;;8.77;4.63;;;11.60;68.60;;;;;;5070010;28;20162;-63
2023/04/30 01:29:04;;;;;;;9.25;4.57;;;11.60;68.60;;;;;;5075734;28;20017;-63
2023/04/30 01:31:30;;;;;;;10.25;5.30;;;11.50;68.60;;;;;;5074783;28;20109;-63
2023/04/30 01:33:56;;;;;;;9.57;4.35;;;11.50;68.70;;;;;;5074725;28;20131;-63
2023/04/30 01:36:24;;;;;;;9.25;4.65;;;11.50;68.70;;;;;;5075140;28;20024;-63
2023/04/30 01:39:32;;;;;;;10.85;4.72;;;11.50;68.70;;;;;;5068044;28;20102;-63
2023/04/30 01:42:11;;;;;;;8.70;4.53;;;11.50;68.80;;;;;;5015616;28;20403;-63
2023/04/30 01:44:58;;;;;;;8.57;4.68;;;11.40;68.80;;;;;;5064905;28;20044;-62
2023/04/30 01:47:40;;;;;;;8.15;4.20;;;11.40;68.80;;;;;;5068473;28;20028;-63
2023/04/30 01:50:42;;;;;;;8.30;5.00;;;11.40;68.80;;;;;;5073128;28;20054;-62
2023/04/30 01:53:17;;;;;;;8.35;4.40;;;11.40;68.90;;;;;;5061799;28;20356;-63
2023/04/30 01:55:56;;;;;;;9.38;4.68;;;11.40;69.00;;;;;;5071154;28;20055;-63
2023/04/30 01:58:23;;;;;;;9.10;4.95;;;11.30;69.10;;;;;;5070499;28;20029;-63
2023/04/30 02:00:49;;;;;;;9.88;4.80;;;11.30;69.10;;;;;;5066101;28;20071;-62
2023/04/30 02:03:15;;;;;;;7.65;4.30;;;11.30;69.20;;;;;;5071699;28;20678;-62
2023/04/30 02:05:40;;;;;;;9.05;4.70;;;11.30;69.90;;;;;;5067066;28;20415;-62
2023/04/30 02:08:06;;;;;;;8.48;4.55;;;11.20;69.30;;;;;;5070056;28;20450;-63
2023/04/30 02:10:32;;;;;;;8.15;4.45;;;11.20;69.40;;;;;;5064927;28;20044;-63
2023/04/30 02:12:58;;;;;;;8.80;4.95;;;11.20;69.40;;;;;;5074972;28;20465;-63
2023/04/30 02:15:24;;;;;;;10.55;4.75;;;11.20;69.40;;;;;;5065720;28;20020;-63
2023/04/30 02:17:50;;;;;;;8.77;4.15;;;11.20;69.40;;;;;;5072708;28;20034;-63
2023/04/30 02:20:16;;;;;;;8.50;4.40;;;11.20;69.40;;;;;;5066848;28;20395;-63
2023/04/30 02:22:42;;;;;;;8.57;4.80;;;11.20;69.40;;;;;;5074183;28;20040;-62
2023/04/30 02:25:08;;;;;;;8.45;4.57;;;11.20;69.40;;;;;;5074444;28;20021;-62
2023/04/30 02:27:34;;;;;;;7.82;4.18;;;11.20;69.40;;;;;;5073358;28;20465;-63
2023/04/30 02:30:00;;;;;;;8.57;4.80;;;11.20;69.50;;;;;;5064658;28;20021;-63
2023/04/30 02:32:26;;;;;;;8.20;4.03;;;11.20;69.60;;;;;;5068512;28;20028;-63
2023/04/30 02:34:51;;;;;;;8.55;4.07;;;11.20;69.60;;;;;;5072841;28;20174;-63
2023/04/30 02:37:17;;;;;;;8.82;4.28;;;11.20;69.60;;;;;;5073093;28;20028;-63
2023/04/30 02:39:43;;;;;;;7.80;4.53;;;11.10;69.50;;;;;;5070570;28;20028;-63
2023/04/30 02:42:09;;;;;;;8.40;4.30;;;11.10;69.50;;;;;;5073608;28;20029;-62
2023/04/30 02:44:35;;;;;;;10.18;5.18;;;11.20;69.60;;;;;;5060281;28;20028;-63
2023/04/30 02:47:01;;;;;;;8.30;4.40;;;11.10;69.60;;;;;;5071729;28;20133;-63
2023/04/30 02:49:27;;;;;;;10.25;4.82;;;11.10;69.60;;;;;;5070844;28;20135;-63
2023/04/30 02:51:54;;;;;;;7.72;4.63;;;11.10;69.60;;;;;;5069350;28;20171;-62
2023/04/30 02:54:19;;;;;;;8.45;4.50;;;11.10;69.60;;;;;;5073449;28;20024;-63
2023/04/30 02:56:46;;;;;;;9.82;5.13;;;11.10;69.60;;;;;;5069026;28;20037;-63
2023/04/30 02:59:12;;;;;;;7.72;4.40;;;11.10;69.60;;;;;;5072261;28;20380;-65
2023/04/30 03:01:38;;;;;;;8.85;4.70;;;11.10;69.60;;;;;;5068736;28;20029;-63
2023/04/30 03:04:03;;;;;;;10.43;4.63;;;11.10;69.60;;;;;;5066277;28;20024;-63
2023/04/30 03:06:33;;;;;;;9.40;4.97;;;11.10;69.60;;;;;;5073061;28;20024;-62
2023/04/30 03:09:00;;;;;;;7.93;4.68;;;11.10;69.60;;;;;;5072835;28;20445;-63
2023/04/30 03:11:26;;;;;;;9.77;4.88;;;11.00;69.90;;;;;;5068954;28;20028;-63
2023/04/30 03:13:52;;;;;;;10.93;5.68;;;11.00;69.70;;;;;;5073701;28;20315;-63
2023/04/30 03:16:19;;;;;;;10.15;4.88;;;11.00;69.70;;;;;;5062900;28;20155;-63
2023/04/30 03:18:47;;;;;;;10.27;4.93;;;11.00;69.80;;;;;;5072351;28;20103;-63
2023/04/30 03:21:12;;;;;;;8.77;4.65;;;11.00;69.80;;;;;;5071905;28;20380;-63
2023/04/30 03:23:38;;;;;;;8.95;5.05;;;11.00;69.90;;;;;;5074594;28;20115;-63
2023/04/30 03:26:04;;;;;;;10.07;4.78;;;11.00;70.00;;;;;;5065115;28;20025;-63
2023/04/30 03:28:30;;;;;;;9.45;4.53;;;11.00;70.00;;;;;;5062829;28;20103;-62
2023/04/30 03:30:56;;;;;;;10.93;5.18;;;10.90;70.10;;;;;;5067392;28;20429;-62
2023/04/30 03:33:21;;;;;;;9.40;4.82;;;10.90;70.10;;;;;;5072540;28;20021;-63
2023/04/30 03:35:49;;;;;;;11.57;5.60;;;10.90;70.10;;;;;;5072194;28;20032;-63
2023/04/30 03:38:15;;;;;;;9.48;5.68;;;10.90;70.10;;;;;;5073505;28;20028;-63
2023/04/30 03:40:40;;;;;;;8.77;5.18;;;10.90;70.10;;;;;;5069348;28;20358;-62
2023/04/30 03:43:06;;;;;;;7.65;4.60;;;10.80;70.10;;;;;;5067741;28;20143;-62
2023/04/30 03:45:32;;;;;;;10.07;5.25;;;10.80;70.10;;;;;;5073447;28;20036;-62
2023/04/30 03:47:58;;;;;;;8.90;4.82;;;10.80;70.20;;;;;;5068484;28;20035;-63
2023/04/30 03:50:25;;;;;;;9.93;5.93;;;10.80;70.30;;;;;;5070947;28;20044;-63
2023/04/30 03:52:50;;;;;;;9.68;5.30;;;10.70;70.40;;;;;;5067427;28;20082;-62
2023/04/30 03:55:17;;;;;;;10.05;5.40;;;10.70;70.40;;;;;;5072314;28;20047;-63
2023/04/30 03:57:43;;;;;;;9.13;4.82;;;10.70;70.40;;;;;;5072320;28;20024;-63
2023/04/30 04:00:10;;;;;;;10.23;5.80;;;10.70;70.50;;;;;;5069432;28;20157;-63
2023/04/30 04:02:40;;;;;;;8.43;4.90;;;10.70;70.50;;;;;;5064347;28;20335;-63
2023/04/30 04:05:09;;;;;;;8.27;5.22;;;10.70;70.50;;;;;;5072108;28;20029;-62
2023/04/30 04:07:35;;;;;;;10.63;5.55;;;10.70;70.60;;;;;;5072510;28;20016;-63
2023/04/30 04:10:01;;;;;;;11.20;5.40;;;10.70;70.60;;;;;;5055001;28;20028;-62
2023/04/30 04:12:28;;;;;;;10.30;5.10;;;10.70;70.60;;;;;;5069735;28;20024;-62
2023/04/30 04:14:54;;;;;;;8.93;4.97;;;10.60;70.60;;;;;;5073074;28;20020;-62
2023/04/30 04:17:21;;;;;;;9.07;5.68;;;10.60;70.60;;;;;;5084133;28;20076;-62
2023/04/30 04:19:46;;;;;;;10.43;5.70;;;10.60;70.60;;;;;;5072564;28;20048;-63
2023/04/30 04:22:14;;;;;;;12.60;5.40;;;10.60;70.60;;;;;;5066630;28;20024;-63
2023/04/30 04:24:40;;;;;;;9.52;5.85;;;10.60;70.70;;;;;;5069473;28;20039;-62
2023/04/30 04:27:06;;;;;;;9.00;5.38;;;10.60;70.70;;;;;;5071530;28;20530;-63
2023/04/30 04:29:32;;;;;;;10.63;5.93;;;10.60;70.70;;;;;;5072514;28;20024;-62
2023/04/30 04:32:01;;;;;;;11.63;5.68;;;10.60;70.70;;;;;;5071313;28;20111;-62
2023/04/30 04:34:27;;;;;;;14.10;6.18;;;10.60;70.80;;;;;;5061788;28;20025;-62
2023/04/30 04:36:53;;;;;;;11.65;5.82;;;10.60;70.80;;;;;;5070278;28;20025;-63
2023/04/30 04:39:18;;;;;;;9.98;6.05;;;10.60;70.80;;;;;;5066869;28;20068;-62
2023/04/30 04:41:44;;;;;;;12.90;6.43;;;10.60;70.80;;;;;;5064316;28;20033;-62
2023/04/30 04:44:10;;;;;;;9.65;5.55;;;10.60;70.90;;;;;;5052809;28;20024;-62
2023/04/30 04:46:41;;;;;;;12.30;6.88;;;10.60;70.90;;;;;;5060624;28;20075;-62
2023/04/30 04:49:07;;;;;;;10.48;6.00;;;10.60;70.80;;;;;;5063350;28;20137;-62
2023/04/30 04:51:34;;;;;;;9.75;6.10;;;10.60;70.90;;;;;;5060587;28;20465;-62
2023/04/30 04:53:59;;;;;;;14.30;6.93;;;10.70;71.00;;;;;;5062036;28;20033;-63
2023/04/30 04:56:25;;;;;;;12.75;6.47;;;10.60;70.90;;;;;;5067986;28;20033;-63
2023/04/30 04:58:51;;;;;;;10.73;5.88;;;10.70;71.00;;;;;;5067037;28;20135;-63
2023/04/30 05:01:17;;;;;;;16.55;7.82;;;10.60;70.90;;;;;;5067563;28;20445;-63
2023/04/30 05:03:46;;;;;;;11.32;6.78;;;10.60;70.90;;;;;;5057814;28;20427;-63
2023/04/30 05:06:11;;;;;;;11.98;7.00;;;10.70;71.00;;;;;;5053299;28;20032;-63
2023/04/30 05:08:37;;;;;;;11.73;6.97;;;10.70;71.00;;;;;;5056572;28;20464;-63
2023/04/30 05:11:03;;;;;;;10.45;6.40;;;10.70;71.10;;;;;;5067350;28;20346;-63
2023/04/30 05:13:29;;;;;;;14.05;6.85;;;10.70;71.00;;;;;;5055083;28;20029;-62
2023/04/30 05:15:55;;;;;;;11.05;6.53;;;10.70;71.00;;;;;;5063175;28;20017;-63
2023/04/30 05:18:21;;;;;;;14.15;6.55;;;10.70;71.00;;;;;;5065263;28;20021;-63
2023/04/30 05:20:46;;;;;;;10.98;6.28;;;10.80;71.00;;;;;;5064570;28;20119;-63
2023/04/30 05:23:12;;;;;;;12.68;7.90;;;10.90;71.00;;;;;;5072542;28;20085;-63
2023/04/30 05:25:38;;;;;;;11.73;6.18;;;10.90;70.90;;;;;;5073118;28;20032;-63
2023/04/30 05:28:05;;;;;;;10.30;6.55;;;11.20;70.50;;;;;;5065630;28;20032;-63
2023/04/30 05:30:31;;;;;;;9.63;5.95;;;11.70;69.60;;;;;;5068070;28;20025;-63
2023/04/30 05:32:57;;;;;;;9.48;6.38;;;12.20;69.00;;;;;;5073138;28;20025;-63
2023/04/30 05:35:23;;;;;;;9.77;5.68;;;12.90;67.80;;;;;;5075706;28;20441;-63
2023/04/30 05:37:49;;;;;;;9.30;5.10;;;13.90;66.00;;;;;;5075831;28;20041;-63
2023/04/30 05:40:15;;;;;;;8.35;5.15;;;14.80;64.00;;;;;;5073363;28;20024;-63
2023/04/30 05:42:44;;;;;;;10.05;5.30;;;15.50;62.50;;;;;;5076597;28;20033;-63
2023/04/30 05:45:13;;;;;;;8.35;4.57;;;16.10;61.20;;;;;;5068231;28;20119;-64
2023/04/30 05:47:39;;;;;;;8.80;4.90;;;16.90;59.70;;;;;;5070529;28;20109;-64
2023/04/30 05:50:06;;;;;;;10.05;4.97;;;17.50;58.20;;;;;;5061597;28;20033;-64
2023/04/30 05:52:32;;;;;;;8.23;4.72;;;18.00;57.00;;;;;;5074318;28;20485;-64
2023/04/30 05:54:57;;;;;;;8.52;4.80;;;18.40;56.10;;;;;;5075519;28;20025;-64
2023/04/30 05:57:23;;;;;;;8.95;5.25;;;18.70;55.30;;;;;;5072968;28;20031;-64
2023/04/30 05:59:49;;;;;;;8.63;4.60;;;18.90;54.80;;;;;;5064093;28;20359;-64
2023/04/30 06:02:15;;;;;;;7.63;4.35;;;18.90;54.40;;;;;;5070763;28;20059;-64
2023/04/30 06:04:41;;;;;;;9.38;4.72;;;18.70;54.50;;;;;;5066633;28;20477;-63
2023/04/30 06:07:07;;;;;;;8.90;4.80;;;18.20;55.10;;;;;;5065541;28;20048;-64
2023/04/30 06:09:32;;;;;;;9.38;5.20;;;17.70;56.30;;;;;;5063499;28;20029;-64
2023/04/30 06:11:58;;;;;;;8.23;4.40;;;17.30;56.30;;;;;;5068787;28;20016;-64
2023/04/30 06:14:24;;;;;;;9.98;5.10;;;17.00;56.80;;;;;;5068578;28;20037;-63
2023/04/30 06:16:50;;;;;;;9.65;4.78;;;16.80;57.10;;;;;;5061559;28;20020;-64
2023/04/30 06:19:16;;;;;;;9.32;5.22;;;16.60;57.30;;;;;;5073840;28;20043;-63
2023/04/30 06:21:42;;;;;;;8.60;4.65;;;16.40;57.40;;;;;;5067983;28;20017;-63
2023/04/30 06:24:08;;;;;;;10.13;5.40;;;16.30;57.50;;;;;;5064067;28;20450;-63
2023/04/30 06:26:34;;;;;;;9.90;5.47;;;16.20;57.50;;;;;;5069881;28;20371;-63
2023/04/30 06:29:00;;;;;;;9.10;5.47;;;16.20;57.60;;;;;;5064340;28;20028;-63
2023/04/30 06:31:26;;;;;;;11.48;5.25;;;16.30;57.50;;;;;;5064533;28;20063;-63
2023/04/30 06:33:52;;;;;;;9.80;5.28;;;16.30;57.30;;;;;;5068997;28;20017;-63
2023/04/30 06:36:18;;;;;;;11.07;6.25;;;16.30;57.20;;;;;;5070563;28;20025;-64
2023/04/30 06:38:45;;;;;;;9.05;5.95;;;16.30;57.10;;;;;;5074589;28;20398;-64
2023/04/30 06:41:12;;;;;;;9.05;5.38;;;16.40;57.10;;;;;;5070878;28;20028;-64
2023/04/30 06:43:37;;;;;;;8.40;5.05;;;16.40;56.90;;;;;;5071897;28;20025;-64
2023/04/30 06:46:05;;;;;;;9.15;5.25;;;16.50;56.80;;;;;;5063033;28;20327;-64
2023/04/30 06:48:31;;;;;;;9.75;5.85;;;16.50;56.70;;;;;;5070734;28;20085;-64
2023/04/30 06:50:57;;;;;;;10.93;5.05;;;16.60;56.60;;;;;;5063814;28;20370;-64
2023/04/30 06:53:23;;;;;;;11.52;5.63;;;16.70;56.50;;;;;;5070920;28;20027;-65
2023/04/30 06:55:49;;;;;;;11.30;5.55;;;16.80;56.40;;;;;;5071010;28;20353;-64
2023/04/30 06:58:15;;;;;;;12.02;6.07;;;16.90;56.20;;;;;;5073962;28;20029;-63
2023/04/30 07:00:42;;;;;;;10.52;5.60;;;17.00;56.00;;;;;;5066203;28;20028;-63
2023/04/30 07:03:07;;;;;;;10.85;5.72;;;17.10;55.90;;;;;;5072067;28;20024;-63
2023/04/30 07:05:33;;;;;;;9.43;5.70;;;17.30;55.80;;;;;;5070325;28;20357;-64
2023/04/30 07:08:01;;;;;;;10.60;5.35;;;17.40;55.60;;;;;;5075359;28;20043;-63
2023/04/30 07:10:26;;;;;;;9.43;5.43;;;17.40;55.50;;;;;;5063781;28;20033;-63
2023/04/30 07:12:52;;;;;;;9.55;4.85;;;17.50;55.30;;;;;;5070988;28;20020;-63
2023/04/30 07:15:18;;;;;;;8.30;5.22;;;17.50;55.10;;;;;;5073237;28;20063;-63
2023/04/30 07:17:44;;;;;;;9.00;5.15;;;17.60;55.00;;;;;;5075227;28;20024;-63
2023/04/30 07:20:13;;;;;;;7.63;4.70;;;17.60;54.80;;;;;;5068672;28;20446;-63
2023/04/30 07:22:39;;;;;;;10.35;4.85;;;17.70;54.80;;;;;;5064543;28;20028;-63
2023/04/30 07:25:06;;;;;;;8.57;4.57;;;17.80;54.60;;;;;;5068271;28;20024;-63
2023/04/30 07:27:31;;;;;;;9.25;4.13;;;17.90;54.40;;;;;;5065384;28;20046;-63
2023/04/30 07:29:57;;;;;;;9.55;4.55;;;17.90;54.20;;;;;;5070126;28;20457;-63
2023/04/30 07:32:25;;;;;;;9.63;4.70;;;18.00;54.00;;;;;;5073119;28;20107;-64
2023/04/30 07:34:52;;;;;;;8.32;4.70;;;18.10;53.70;;;;;;5070705;28;20078;-64
2023/04/30 07:37:18;;;;;;;7.55;3.58;;;18.10;53.50;;;;;;5067919;28;20036;-64
2023/04/30 07:39:44;;;;;;;7.25;3.58;;;18.20;53.50;;;;;;5068642;28;20028;-64
2023/04/30 07:42:10;;;;;;;8.13;4.03;;;18.30;53.30;;;;;;5068482;28;20047;-65
2023/04/30 07:44:35;;;;;;;8.30;4.22;;;18.40;53.10;;;;;;5073266;28;20365;-64
2023/04/30 07:47:01;;;;;;;8.32;3.88;;;18.50;52.90;;;;;;5068144;28;20350;-64
2023/04/30 07:49:27;;;;;;;8.65;4.28;;;18.60;52.70;;;;;;5072584;28;20833;-64
2023/04/30 07:51:53;;;;;;;9.10;4.20;;;18.70;52.60;;;;;;5067572;28;20036;-64
2023/04/30 07:54:19;;;;;;;8.00;4.10;;;18.70;52.40;;;;;;5067395;28;20029;-65
2023/04/30 07:56:45;;;;;;;8.52;4.03;;;18.70;52.20;;;;;;5067987;28;20035;-64
2023/04/30 07:59:10;;;;;;;8.57;4.60;;;18.80;52.20;;;;;;5068309;28;20124;-64
2023/04/30 08:01:36;;;;;;;8.90;4.15;;;18.80;52.10;;;;;;5072050;28;20035;-64
2023/04/30 08:04:02;;;;;;;8.32;4.78;;;18.90;52.10;;;;;;5066145;28;20040;-63
2023/04/30 08:06:28;;;;;;;8.40;4.45;;;18.90;52.70;;;;;;5070898;28;20029;-64
2023/04/30 08:08:53;;;;;;;9.75;4.30;;;18.90;52.10;;;;;;5070077;28;20035;-64
2023/04/30 08:11:20;;;;;;;10.18;4.28;;;19.00;52.00;;;;;;5069736;28;20309;-65
2023/04/30 08:13:46;;;;;;;9.57;4.10;;;19.10;52.00;;;;;;5071523;28;20025;-64
2023/04/30 08:16:11;;;;;;;7.53;3.92;;;19.20;51.90;;;;;;5067556;28;20054;-62
2023/04/30 08:18:45;;;;;;;7.45;4.07;;;19.30;51.70;;;;;;5071528;28;20081;-65
2023/04/30 08:21:12;;;;;;;8.52;4.10;;;19.50;51.50;;;;;;5069245;28;20033;-64
2023/04/30 08:23:38;;;;;;;9.38;4.80;;;19.60;51.30;;;;;;5070907;28;20481;-63
2023/04/30 08:26:04;;;;;;;9.65;4.68;;;19.60;51.00;;;;;;5064648;28;20077;-64
2023/04/30 08:28:30;;;;;;;7.53;4.22;;;19.60;51.00;;;;;;5067169;28;20123;-64
2023/04/30 08:30:56;;;;;;;9.10;4.93;;;19.60;51.00;;;;;;5069949;28;20028;-64
2023/04/30 08:33:21;;;;;;;10.45;4.68;;;19.60;51.00;;;;;;5065239;28;20029;-65
2023/04/30 08:35:47;;;;;;;8.20;4.10;;;19.60;50.90;;;;;;5064735;28;20025;-64
2023/04/30 08:38:13;;;;;;;7.10;4.00;;;19.70;50.70;;;;;;5065975;28;20025;-64
2023/04/30 08:40:39;;;;;;;8.05;4.32;;;19.70;50.70;;;;;;5068059;28;20039;-64
2023/04/30 08:43:08;;;;;;;7.70;4.15;;;19.80;50.60;;;;;;5066451;28;20052;-64
2023/04/30 08:45:35;;;;;;;7.60;3.83;;;19.90;50.50;;;;;;5061604;28;20016;-64
2023/04/30 08:48:06;;;;;;;9.13;4.75;;;20.00;50.30;;;;;;5068904;28;20044;-64
2023/04/30 08:50:33;;;;;;;8.98;4.25;;;20.10;50.20;;;;;;5068787;28;20472;-64
2023/04/30 08:53:00;;;;;;;9.45;4.22;;;20.10;50.10;;;;;;5070325;28;20856;-63
2023/04/30 08:55:27;;;;;;;7.80;4.47;;;20.20;50.00;;;;;;5067427;28;20032;-64
2023/04/30 08:57:53;;;;;;;7.10;3.72;;;20.20;49.50;;;;;;5065028;28;20442;-64
2023/04/30 09:00:19;;;;;;;6.50;3.55;;;20.20;49.60;;;;;;5070055;28;20043;-63
2023/04/30 09:02:46;;;;;;;11.77;4.38;;;20.20;49.60;;;;;;5069157;28;20056;-64
2023/04/30 09:05:13;;;;;;;8.40;3.75;;;20.30;49.60;;;;;;5070975;28;20037;-63
2023/04/30 09:07:44;;;;;;;7.38;3.67;;;20.30;49.40;;;;;;5053267;28;20040;-64
2023/04/30 09:10:15;;;;;;;7.50;4.00;;;20.40;49.10;;;;;;5068394;28;20039;-64
2023/04/30 09:12:44;;;;;;;7.03;3.28;;;20.50;49.20;;;;;;5068152;28;20089;-63
2023/04/30 09:15:11;;;;;;;7.38;4.03;;;20.60;49.10;;;;;;5067428;28;20028;-63
2023/04/30 09:17:37;;;;;;;9.93;3.70;;;20.60;48.90;;;;;;5077245;28;20060;-63
2023/04/30 09:20:11;;;;;;;7.90;3.75;;;20.60;48.80;;;;;;5074402;28;20396;-63
2023/04/30 09:22:38;;;;;;;7.88;3.88;;;20.60;49.20;;;;;;5075968;28;20060;-64
2023/04/30 09:25:06;;;;;;;6.95;3.38;;;20.60;48.70;;;;;;5075037;28;20032;-64
2023/04/30 09:27:31;;;;;;;6.55;3.47;;;20.70;48.60;;;;;;5076959;28;20034;-64
2023/04/30 09:29:57;;;;;;;9.15;3.55;;;20.80;48.30;;;;;;5074163;28;20116;-63
2023/04/30 09:32:23;;;;;;;6.82;3.63;;;20.80;48.10;;;;;;5076756;28;20024;-64
2023/04/30 09:34:49;;;;;;;8.25;3.47;;;20.90;48.20;;;;;;5070258;28;20028;-64
2023/04/30 09:37:15;;;;;;;6.95;3.70;;;20.90;47.90;;;;;;5076777;28;20323;-64
2023/04/30 09:39:54;;;;;;;7.03;3.50;;;21.00;47.70;;;;;;5074200;28;20017;-64
2023/04/30 09:42:21;;;;;;;7.60;4.18;;;21.10;47.60;;;;;;5046533;28;20029;-64
2023/04/30 09:44:47;;;;;;;8.00;3.75;;;21.10;47.70;;;;;;5068924;28;20044;-64
2023/04/30 09:47:18;;;;;;;6.97;3.42;;;21.20;47.70;;;;;;5074727;28;20422;-64
2023/04/30 09:49:52;;;;;;;7.78;3.90;;;21.30;47.60;;;;;;5072556;28;20028;-64
2023/04/30 09:52:18;;;;;;;9.10;3.40;;;21.40;47.40;;;;;;5075301;28;20052;-64
2023/04/30 09:54:45;;;;;;;7.53;3.60;;;21.40;47.30;;;;;;5071458;28;20021;-64
2023/04/30 09:57:13;;;;;;;6.25;3.38;;;21.50;47.20;;;;;;5072854;28;20029;-64
2023/04/30 09:59:44;;;;;;;8.45;4.00;;;21.60;47.30;;;;;;5075287;28;20017;-64
2023/04/30 10:02:14;;;;;;;6.78;3.15;;;21.60;47.10;;;;;;5070750;28;20514;-64
2023/04/30 10:04:44;;;;;;;6.38;3.30;;;21.60;47.00;;;;;;5071218;28;20033;-64
2023/04/30 10:07:14;;;;;;;6.22;2.92;;;21.70;47.00;;;;;;5070922;28;20035;-64
2023/04/30 10:09:50;;;;;;;5.70;2.95;;;21.70;46.50;;;;;;5071663;28;20322;-64
2023/04/30 10:12:23;;;;;;;8.02;3.20;;;21.70;46.30;;;;;;5058813;28;20454;-64
2023/04/30 10:15:02;;;;;;;6.13;2.90;;;21.60;46.10;;;;;;5060802;28;20421;-64
2023/04/30 10:17:32;;;;;;;5.95;2.78;;;21.50;45.80;;;;;;5055677;28;20033;-64
2023/04/30 10:20:04;;;;;;;6.80;2.60;;;21.60;45.80;;;;;;5057278;28;20033;-64
2023/04/30 10:22:33;;;;;;;5.57;2.97;;;21.70;45.60;;;;;;5058028;28;20110;-64
2023/04/30 10:25:00;;;;;;;7.95;3.00;;;21.70;45.30;;;;;;5055096;28;20044;-64
2023/04/30 10:27:26;;;;;;;6.28;3.10;;;21.80;45.30;;;;;;5067631;28;20119;-65
2023/04/30 10:29:53;;;;;;;6.18;2.80;;;21.80;45.10;;;;;;5055681;28;20112;-65
2023/04/30 10:32:20;;;;;;;6.10;2.88;;;21.80;45.00;;;;;;5061799;28;20043;-65
2023/04/30 10:35:05;;;;;;;7.22;3.53;;;21.80;45.20;;;;;;5055944;28;20037;-65
2023/04/30 10:37:40;;;;;;;6.63;2.85;;;21.90;44.80;;;;;;5056407;28;20033;-65
2023/04/30 10:40:08;;;;;;;6.15;2.78;;;21.80;44.80;;;;;;5055710;28;20044;-64
2023/04/30 10:42:35;;;;;;;8.65;3.00;;;21.90;45.00;;;;;;5056680;28;20033;-64
2023/04/30 10:45:03;;;;;;;7.22;2.80;;;21.90;44.80;;;;;;5056960;28;20051;-64
2023/04/30 10:47:30;;;;;;;5.97;2.58;;;22.00;44.90;;;;;;5056486;28;20025;-64
2023/04/30 10:50:08;;;;;;;5.70;2.38;;;22.10;44.80;;;;;;5055624;28;20032;-64
2023/04/30 10:52:36;;;;;;;5.25;2.63;;;22.10;44.60;;;;;;5056316;28;20033;-64
2023/04/30 10:55:09;;;;;;;6.00;2.65;;;22.10;44.50;;;;;;5071986;28;20025;-64
2023/04/30 10:57:42;;;;;;;6.53;2.92;;;22.00;44.40;;;;;;5069472;28;20043;-64
2023/04/30 11:00:08;;;;;;;5.93;2.70;;;22.00;44.40;;;;;;5061533;28;20032;-64
2023/04/30 11:02:42;;;;;;;6.63;3.13;;;22.00;44.50;;;;;;5069634;28;20365;-64
2023/04/30 11:05:10;;;;;;;6.90;2.95;;;22.00;44.40;;;;;;5065983;28;20107;-65
2023/04/30 11:07:36;;;;;;;7.63;3.33;;;21.90;44.40;;;;;;5071427;28;20028;-64
2023/04/30 11:10:02;;;;;;;5.68;2.58;;;21.90;44.50;;;;;;5067065;28;20322;-64
2023/04/30 11:12:28;;;;;;;5.70;2.70;;;21.90;44.30;;;;;;5061721;28;20327;-64
2023/04/30 11:15:05;;;;;;;6.72;2.97;;;21.80;44.40;;;;;;5074276;28;20016;-64
2023/04/30 11:17:32;;;;;;;6.55;2.88;;;21.80;44.50;;;;;;5059612;28;20053;-64
2023/04/30 11:20:01;;;;;;;5.35;2.60;;;21.90;44.60;;;;;;5073602;28;20025;-66
2023/04/30 11:22:34;;;;;;;6.30;2.90;;;21.90;44.50;;;;;;5072973;28;20035;-65
2023/04/30 11:25:05;;;;;;;6.55;3.25;;;21.90;44.60;;;;;;5065879;28;20120;-65
2023/04/30 11:27:36;;;;;;;5.97;3.08;;;21.80;44.70;;;;;;5059369;28;20042;-65
2023/04/30 11:30:09;;;;;;;5.60;2.65;;;21.90;44.80;;;;;;5069875;28;20028;-65
2023/04/30 11:32:36;;;;;;;5.57;2.58;;;21.90;44.70;;;;;;5063482;28;20068;-65
2023/04/30 11:35:04;;;;;;;5.80;2.83;;;21.90;44.70;;;;;;5065864;28;20414;-64
2023/04/30 11:37:34;;;;;;;5.40;2.65;;;21.90;44.60;;;;;;5073097;28;20028;-65
2023/04/30 11:40:02;;;;;;;6.60;2.65;;;21.80;44.70;;;;;;5073223;28;20032;-64
2023/04/30 11:42:30;;;;;;;7.70;3.20;;;21.80;44.80;;;;;;5060203;28;20362;-64
2023/04/30 11:45:06;;;;;;;7.15;2.60;;;21.80;44.70;;;;;;5071820;28;20032;-64
2023/04/30 11:47:39;;;;;;;6.00;2.80;;;21.80;44.80;;;;;;5070043;28;20033;-65
2023/04/30 11:50:07;;;;;;;4.88;2.28;;;21.90;45.00;;;;;;5064026;28;20149;-65
2023/04/30 11:52:33;;;;;;;6.18;2.78;;;21.90;45.00;;;;;;5060532;28;20049;-65
2023/04/30 11:54:59;;;;;;;6.05;2.70;;;21.80;45.00;;;;;;5066519;28;20028;-65
2023/04/30 11:57:25;;;;;;;7.00;2.65;;;21.90;45.10;;;;;;5070768;28;20330;-64
2023/04/30 11:59:51;;;;;;;6.43;2.80;;;21.80;45.00;;;;;;5067798;28;20143;-64
2023/04/30 12:02:17;;;;;;;4.88;1.90;;;21.80;45.00;;;;;;5068168;28;20104;-65
2023/04/30 12:04:44;;;;;;;4.57;1.98;;;21.70;45.20;;;;;;5074067;28;20036;-65
2023/04/30 12:07:09;;;;;;;5.22;2.30;;;21.70;45.30;;;;;;5070453;28;20044;-64
2023/04/30 12:09:52;;;;;;;4.80;2.20;;;21.60;45.30;;;;;;5065891;28;20108;-65
2023/04/30 12:12:28;;;;;;;5.55;2.13;;;21.50;45.20;;;;;;5067832;28;20356;-64
2023/04/30 12:14:54;;;;;;;6.28;2.58;;;21.40;45.60;;;;;;5073479;28;20028;-64
2023/04/30 12:17:34;;;;;;;6.13;2.47;;;21.30;45.70;;;;;;5067554;28;20036;-64
2023/04/30 12:20:00;;;;;;;6.70;2.85;;;21.20;45.80;;;;;;5073754;28;20029;-64
2023/04/30 12:22:26;;;;;;;8.02;2.30;;;21.20;46.00;;;;;;5062408;28;20089;-64
2023/04/30 12:24:53;;;;;;;5.80;2.10;;;21.10;46.20;;;;;;5073564;28;20429;-64
2023/04/30 12:27:21;;;;;;;4.95;2.33;;;21.10;46.20;;;;;;5062633;28;20436;-64
2023/04/30 12:29:48;;;;;;;5.13;2.10;;;21.00;46.20;;;;;;5064758;28;20449;-64
2023/04/30 12:32:17;;;;;;;5.72;2.35;;;20.90;46.30;;;;;;5067097;28;20013;-64
2023/04/30 12:34:43;;;;;;;5.22;2.40;;;20.90;46.60;;;;;;5064753;28;20052;-63
2023/04/30 12:37:09;;;;;;;4.43;2.10;;;20.70;46.60;;;;;;5070069;28;20158;-64
2023/04/30 12:39:36;;;;;;;4.85;2.10;;;20.70;46.80;;;;;;5070487;28;20364;-64
2023/04/30 12:42:03;;;;;;;5.13;1.80;;;20.60;46.80;;;;;;5066522;28;20086;-64
2023/04/30 12:44:28;;;;;;;5.82;2.20;;;20.50;46.60;;;;;;5067268;28;20371;-64
2023/04/30 12:46:59;;;;;;;5.85;1.80;;;20.50;46.60;;;;;;5075395;28;20048;-64
2023/04/30 12:49:32;;;;;;;4.47;1.85;;;20.40;46.60;;;;;;5062106;28;20033;-64